sensor_id;sensor_type;location;lat;lon;timestamp;P1;durP1;ratioP1;P2;durP2;ratioP2
80138;SDS011;69467;59.842;17.604;2024-02-21T00:02:30;14.63;;;8.20;;
80138;SDS011;69467;59.842;17.604;2024-02-21T00:09:46;13.90;;;7.18;;
80138;SDS011;69467;59.842;17.604;2024-02-21T00:14:39;16.50;;;6.60;;
80138;SDS011;69467;59.842;17.604;2024-02-21T00:17:05;11.93;;;6.43;;
80138;SDS011;69467;59.842;17.604;2024-02-21T00:24:21;11.77;;;6.80;;
80138;SDS011;69467;59.842;17.604;2024-02-21T00:29:12;25.23;;;9.90;;
80138;SDS011;69467;59.842;17.604;2024-02-21T00:34:02;25.53;;;8.40;;
80138;SDS011;69467;59.842;17.604;2024-02-21T00:38:53;22.83;;;8.85;;
80138;SDS011;69467;59.842;17.604;2024-02-21T00:43:44;14.23;;;7.07;;
80138;SDS011;69467;59.842;17.604;2024-02-21T00:48:34;10.50;;;5.60;;
80138;SDS011;69467;59.842;17.604;2024-02-21T00:58:16;16.30;;;7.33;;
80138;SDS011;69467;59.842;17.604;2024-02-21T01:05:32;11.73;;;6.10;;
80138;SDS011;69467;59.842;17.604;2024-02-21T01:12:48;18.73;;;7.50;;
80138;SDS011;69467;59.842;17.604;2024-02-21T01:17:39;12.40;;;7.50;;
80138;SDS011;69467;59.842;17.604;2024-02-21T01:20:05;13.63;;;7.27;;
80138;SDS011;69467;59.842;17.604;2024-02-21T01:22:32;24.33;;;7.80;;
80138;SDS011;69467;59.842;17.604;2024-02-21T01:27:23;20.03;;;9.63;;
80138;SDS011;69467;59.842;17.604;2024-02-21T01:32:14;31.90;;;11.73;;
80138;SDS011;69467;59.842;17.604;2024-02-21T01:34:40;23.73;;;8.63;;
80138;SDS011;69467;59.842;17.604;2024-02-21T01:39:32;38.87;;;10.20;;
80138;SDS011;69467;59.842;17.604;2024-02-21T01:44:24;18.17;;;9.10;;
80138;SDS011;69467;59.842;17.604;2024-02-21T01:49:14;40.63;;;14.03;;
80138;SDS011;69467;59.842;17.604;2024-02-21T01:54:06;28.27;;;12.75;;
80138;SDS011;69467;59.842;17.604;2024-02-21T02:06:13;29.52;;;13.02;;
80138;SDS011;69467;59.842;17.604;2024-02-21T02:08:39;34.03;;;12.63;;
80138;SDS011;69467;59.842;17.604;2024-02-21T02:15:55;37.55;;;13.80;;
80138;SDS011;69467;59.842;17.604;2024-02-21T02:23:22;28.88;;;11.85;;
80138;SDS011;69467;59.842;17.604;2024-02-21T02:25:58;33.27;;;13.10;;
80138;SDS011;69467;59.842;17.604;2024-02-21T02:33:14;26.13;;;10.83;;
80138;SDS011;69467;59.842;17.604;2024-02-21T02:35:42;24.07;;;12.13;;
80138;SDS011;69467;59.842;17.604;2024-02-21T02:40:34;22.80;;;11.00;;
80138;SDS011;69467;59.842;17.604;2024-02-21T02:45:26;20.87;;;10.33;;
80138;SDS011;69467;59.842;17.604;2024-02-21T02:50:17;18.63;;;9.07;;
80138;SDS011;69467;59.842;17.604;2024-02-21T02:57:33;19.60;;;8.33;;
80138;SDS011;69467;59.842;17.604;2024-02-21T03:02:23;19.45;;;8.25;;
80138;SDS011;69467;59.842;17.604;2024-02-21T03:07:15;18.07;;;7.03;;
80138;SDS011;69467;59.842;17.604;2024-02-21T03:09:41;23.70;;;9.63;;
80138;SDS011;69467;59.842;17.604;2024-02-21T03:12:07;15.07;;;7.37;;
80138;SDS011;69467;59.842;17.604;2024-02-21T03:14:34;23.67;;;7.20;;
80138;SDS011;69467;59.842;17.604;2024-02-21T03:19:25;18.90;;;8.13;;
80138;SDS011;69467;59.842;17.604;2024-02-21T03:24:16;19.10;;;8.77;;
80138;SDS011;69467;59.842;17.604;2024-02-21T03:29:07;22.47;;;7.50;;
80138;SDS011;69467;59.842;17.604;2024-02-21T03:31:34;17.47;;;7.47;;
80138;SDS011;69467;59.842;17.604;2024-02-21T03:34:00;17.63;;;8.00;;
80138;SDS011;69467;59.842;17.604;2024-02-21T03:38:51;14.80;;;8.43;;
80138;SDS011;69467;59.842;17.604;2024-02-21T03:43:42;19.43;;;8.40;;
80138;SDS011;69467;59.842;17.604;2024-02-21T03:48:32;12.27;;;6.70;;
80138;SDS011;69467;59.842;17.604;2024-02-21T03:53:23;14.13;;;7.00;;
80138;SDS011;69467;59.842;17.604;2024-02-21T03:58:14;14.55;;;7.55;;
80138;SDS011;69467;59.842;17.604;2024-02-21T04:03:04;16.88;;;8.27;;
80138;SDS011;69467;59.842;17.604;2024-02-21T04:05:31;15.57;;;7.27;;
80138;SDS011;69467;59.842;17.604;2024-02-21T04:10:22;17.00;;;7.65;;
80138;SDS011;69467;59.842;17.604;2024-02-21T04:15:15;12.17;;;6.50;;
80138;SDS011;69467;59.842;17.604;2024-02-21T04:17:44;16.17;;;7.97;;
80138;SDS011;69467;59.842;17.604;2024-02-21T04:22:39;19.33;;;8.77;;
80138;SDS011;69467;59.842;17.604;2024-02-21T04:27:29;14.80;;;8.32;;
80138;SDS011;69467;59.842;17.604;2024-02-21T04:32:20;17.20;;;7.10;;
80138;SDS011;69467;59.842;17.604;2024-02-21T04:37:11;13.38;;;8.00;;
80138;SDS011;69467;59.842;17.604;2024-02-21T04:42:01;12.88;;;5.63;;
80138;SDS011;69467;59.842;17.604;2024-02-21T04:46:52;14.33;;;6.17;;
80138;SDS011;69467;59.842;17.604;2024-02-21T04:51:44;15.40;;;8.48;;
80138;SDS011;69467;59.842;17.604;2024-02-21T04:54:09;16.07;;;6.97;;
80138;SDS011;69467;59.842;17.604;2024-02-21T04:59:00;12.52;;;6.60;;
80138;SDS011;69467;59.842;17.604;2024-02-21T05:03:50;13.07;;;5.90;;
80138;SDS011;69467;59.842;17.604;2024-02-21T05:13:32;11.60;;;6.27;;
80138;SDS011;69467;59.842;17.604;2024-02-21T05:18:26;13.73;;;6.63;;
80138;SDS011;69467;59.842;17.604;2024-02-21T05:23:17;12.83;;;5.37;;
80138;SDS011;69467;59.842;17.604;2024-02-21T05:28:07;15.00;;;7.35;;
80138;SDS011;69467;59.842;17.604;2024-02-21T05:32:58;10.90;;;5.93;;
80138;SDS011;69467;59.842;17.604;2024-02-21T05:37:53;13.63;;;5.80;;
80138;SDS011;69467;59.842;17.604;2024-02-21T05:42:43;11.23;;;6.65;;
80138;SDS011;69467;59.842;17.604;2024-02-21T05:47:34;13.70;;;6.13;;
80138;SDS011;69467;59.842;17.604;2024-02-21T05:54:50;11.47;;;6.23;;
80138;SDS011;69467;59.842;17.604;2024-02-21T05:59:42;11.97;;;5.47;;
80138;SDS011;69467;59.842;17.604;2024-02-21T06:02:08;11.53;;;4.90;;
80138;SDS011;69467;59.842;17.604;2024-02-21T06:06:59;12.53;;;5.40;;
80138;SDS011;69467;59.842;17.604;2024-02-21T06:11:50;13.30;;;6.20;;
80138;SDS011;69467;59.842;17.604;2024-02-21T06:16:43;10.45;;;4.88;;
80138;SDS011;69467;59.842;17.604;2024-02-21T06:19:08;9.70;;;5.80;;
80138;SDS011;69467;59.842;17.604;2024-02-21T06:23:59;12.52;;;6.45;;
80138;SDS011;69467;59.842;17.604;2024-02-21T06:28:49;12.73;;;7.70;;
80138;SDS011;69467;59.842;17.604;2024-02-21T06:33:41;14.95;;;6.72;;
80138;SDS011;69467;59.842;17.604;2024-02-21T06:38:32;18.80;;;7.20;;
80138;SDS011;69467;59.842;17.604;2024-02-21T06:40:59;17.80;;;7.53;;
80138;SDS011;69467;59.842;17.604;2024-02-21T06:43:25;17.63;;;7.37;;
80138;SDS011;69467;59.842;17.604;2024-02-21T06:45:53;16.27;;;6.77;;
80138;SDS011;69467;59.842;17.604;2024-02-21T06:48:19;11.13;;;6.23;;
80138;SDS011;69467;59.842;17.604;2024-02-21T06:55:35;18.30;;;6.60;;
80138;SDS011;69467;59.842;17.604;2024-02-21T07:02:53;15.40;;;6.50;;
80138;SDS011;69467;59.842;17.604;2024-02-21T07:07:43;14.90;;;5.70;;
80138;SDS011;69467;59.842;17.604;2024-02-21T07:12:34;18.50;;;7.05;;
80138;SDS011;69467;59.842;17.604;2024-02-21T07:15:00;20.57;;;9.20;;
80138;SDS011;69467;59.842;17.604;2024-02-21T07:22:16;25.20;;;11.17;;
80138;SDS011;69467;59.842;17.604;2024-02-21T07:24:42;24.13;;;10.20;;
80138;SDS011;69467;59.842;17.604;2024-02-21T07:29:32;21.50;;;9.80;;
80138;SDS011;69467;59.842;17.604;2024-02-21T07:31:58;29.23;;;8.95;;
80138;SDS011;69467;59.842;17.604;2024-02-21T07:36:48;16.20;;;7.45;;
80138;SDS011;69467;59.842;17.604;2024-02-21T07:41:39;19.02;;;7.80;;
80138;SDS011;69467;59.842;17.604;2024-02-21T07:44:07;29.17;;;10.50;;
80138;SDS011;69467;59.842;17.604;2024-02-21T07:46:32;29.17;;;9.97;;
80138;SDS011;69467;59.842;17.604;2024-02-21T07:53:52;31.17;;;11.87;;
80138;SDS011;69467;59.842;17.604;2024-02-21T07:58:43;24.67;;;10.83;;
80138;SDS011;69467;59.842;17.604;2024-02-21T08:03:34;43.00;;;12.13;;
80138;SDS011;69467;59.842;17.604;2024-02-21T08:08:25;27.33;;;11.03;;
80138;SDS011;69467;59.842;17.604;2024-02-21T08:10:51;28.20;;;11.23;;
80138;SDS011;69467;59.842;17.604;2024-02-21T08:15:42;41.23;;;13.70;;
80138;SDS011;69467;59.842;17.604;2024-02-21T08:18:08;43.40;;;13.27;;
80138;SDS011;69467;59.842;17.604;2024-02-21T08:22:59;58.23;;;14.87;;
80138;SDS011;69467;59.842;17.604;2024-02-21T08:27:49;46.83;;;11.93;;
80138;SDS011;69467;59.842;17.604;2024-02-21T08:30:16;33.37;;;11.87;;
80138;SDS011;69467;59.842;17.604;2024-02-21T08:35:07;38.73;;;14.10;;
80138;SDS011;69467;59.842;17.604;2024-02-21T08:39:58;48.83;;;13.87;;
80138;SDS011;69467;59.842;17.604;2024-02-21T08:47:14;43.07;;;14.23;;
80138;SDS011;69467;59.842;17.604;2024-02-21T08:52:05;34.13;;;13.27;;
80138;SDS011;69467;59.842;17.604;2024-02-21T08:56:59;50.07;;;14.27;;
80138;SDS011;69467;59.842;17.604;2024-02-21T09:01:51;35.63;;;12.83;;
80138;SDS011;69467;59.842;17.604;2024-02-21T09:04:18;54.50;;;14.60;;
80138;SDS011;69467;59.842;17.604;2024-02-21T09:09:10;32.10;;;11.73;;
80138;SDS011;69467;59.842;17.604;2024-02-21T09:14:00;52.70;;;17.52;;
80138;SDS011;69467;59.842;17.604;2024-02-21T09:18:51;79.00;;;18.48;;
80138;SDS011;69467;59.842;17.604;2024-02-21T09:23:43;52.83;;;15.43;;
80138;SDS011;69467;59.842;17.604;2024-02-21T09:28:38;33.70;;;14.57;;
80138;SDS011;69467;59.842;17.604;2024-02-21T09:33:29;63.60;;;17.97;;
80138;SDS011;69467;59.842;17.604;2024-02-21T09:38:20;53.97;;;17.95;;
80138;SDS011;69467;59.842;17.604;2024-02-21T09:43:12;82.00;;;18.80;;
80138;SDS011;69467;59.842;17.604;2024-02-21T09:45:43;61.93;;;17.33;;
80138;SDS011;69467;59.842;17.604;2024-02-21T09:48:25;111.47;;;24.47;;
80138;SDS011;69467;59.842;17.604;2024-02-21T09:50:54;67.57;;;17.63;;
80138;SDS011;69467;59.842;17.604;2024-02-21T09:53:22;54.83;;;18.60;;
80138;SDS011;69467;59.842;17.604;2024-02-21T09:55:49;64.60;;;22.30;;
80138;SDS011;69467;59.842;17.604;2024-02-21T09:58:16;58.93;;;19.60;;
80138;SDS011;69467;59.842;17.604;2024-02-21T10:05:34;72.47;;;20.90;;
80138;SDS011;69467;59.842;17.604;2024-02-21T10:08:00;63.37;;;17.30;;
80138;SDS011;69467;59.842;17.604;2024-02-21T10:10:26;51.27;;;18.60;;
80138;SDS011;69467;59.842;17.604;2024-02-21T10:12:54;96.00;;;25.17;;
80138;SDS011;69467;59.842;17.604;2024-02-21T10:17:50;45.80;;;20.17;;
80138;SDS011;69467;59.842;17.604;2024-02-21T10:20:23;90.40;;;22.00;;
80138;SDS011;69467;59.842;17.604;2024-02-21T10:25:14;60.47;;;19.42;;
80138;SDS011;69467;59.842;17.604;2024-02-21T10:30:07;82.47;;;19.27;;
80138;SDS011;69467;59.842;17.604;2024-02-21T10:32:37;133.40;;;28.87;;
80138;SDS011;69467;59.842;17.604;2024-02-21T10:35:26;43.72;;;17.10;;
80138;SDS011;69467;59.842;17.604;2024-02-21T10:37:56;50.97;;;19.03;;
80138;SDS011;69467;59.842;17.604;2024-02-21T10:42:52;62.67;;;17.97;;
80138;SDS011;69467;59.842;17.604;2024-02-21T10:45:23;46.17;;;15.47;;
80138;SDS011;69467;59.842;17.604;2024-02-21T10:47:53;65.57;;;20.17;;
80138;SDS011;69467;59.842;17.604;2024-02-21T10:50:24;42.97;;;14.93;;
80138;SDS011;69467;59.842;17.604;2024-02-21T10:53:01;58.03;;;17.17;;
80138;SDS011;69467;59.842;17.604;2024-02-21T10:55:38;86.07;;;15.93;;
80138;SDS011;69467;59.842;17.604;2024-02-21T10:58:06;64.13;;;17.27;;
80138;SDS011;69467;59.842;17.604;2024-02-21T11:00:35;63.93;;;18.00;;
80138;SDS011;69467;59.842;17.604;2024-02-21T11:03:01;63.37;;;16.13;;
80138;SDS011;69467;59.842;17.604;2024-02-21T11:05:28;74.23;;;16.23;;
80138;SDS011;69467;59.842;17.604;2024-02-21T11:07:54;59.20;;;17.07;;
80138;SDS011;69467;59.842;17.604;2024-02-21T11:12:48;32.47;;;13.40;;
80138;SDS011;69467;59.842;17.604;2024-02-21T11:17:38;44.53;;;13.82;;
80138;SDS011;69467;59.842;17.604;2024-02-21T11:22:40;31.60;;;12.60;;
80138;SDS011;69467;59.842;17.604;2024-02-21T11:25:07;63.90;;;15.07;;
80138;SDS011;69467;59.842;17.604;2024-02-21T11:27:36;45.27;;;13.90;;
80138;SDS011;69467;59.842;17.604;2024-02-21T11:30:05;53.73;;;13.97;;
80138;SDS011;69467;59.842;17.604;2024-02-21T11:32:31;34.37;;;12.77;;
80138;SDS011;69467;59.842;17.604;2024-02-21T11:37:32;43.17;;;11.33;;
80138;SDS011;69467;59.842;17.604;2024-02-21T11:39:59;30.53;;;11.10;;
80138;SDS011;69467;59.842;17.604;2024-02-21T11:42:28;38.90;;;12.43;;
80138;SDS011;69467;59.842;17.604;2024-02-21T11:44:59;38.23;;;13.50;;
80138;SDS011;69467;59.842;17.604;2024-02-21T11:47:25;30.63;;;11.97;;
80138;SDS011;69467;59.842;17.604;2024-02-21T11:52:20;26.00;;;11.00;;
80138;SDS011;69467;59.842;17.604;2024-02-21T11:54:47;23.80;;;10.23;;
80138;SDS011;69467;59.842;17.604;2024-02-21T11:59:39;56.17;;;14.13;;
80138;SDS011;69467;59.842;17.604;2024-02-21T12:02:06;16.90;;;9.07;;
80138;SDS011;69467;59.842;17.604;2024-02-21T12:04:32;51.50;;;11.23;;
80138;SDS011;69467;59.842;17.604;2024-02-21T12:06:58;73.63;;;13.55;;
80138;SDS011;69467;59.842;17.604;2024-02-21T12:11:59;26.73;;;10.47;;
80138;SDS011;69467;59.842;17.604;2024-02-21T12:14:28;31.47;;;11.93;;
80138;SDS011;69467;59.842;17.604;2024-02-21T12:16:58;166.53;;;25.77;;
80138;SDS011;69467;59.842;17.604;2024-02-21T12:19:24;29.07;;;11.77;;
80138;SDS011;69467;59.842;17.604;2024-02-21T12:21:49;172.32;;;53.80;;
80138;SDS011;69467;59.842;17.604;2024-02-21T12:26:48;29.00;;;11.30;;
80138;SDS011;69467;59.842;17.604;2024-02-21T12:29:13;47.25;;;13.18;;
80138;SDS011;69467;59.842;17.604;2024-02-21T12:31:39;86.22;;;13.13;;
80138;SDS011;69467;59.842;17.604;2024-02-21T12:38:58;50.70;;;12.60;;
80138;SDS011;69467;59.842;17.604;2024-02-21T12:41:25;45.03;;;11.55;;
80138;SDS011;69467;59.842;17.604;2024-02-21T12:43:52;83.90;;;18.13;;
80138;SDS011;69467;59.842;17.604;2024-02-21T12:46:18;89.05;;;17.63;;
80138;SDS011;69467;59.842;17.604;2024-02-21T12:48:43;53.83;;;11.35;;
80138;SDS011;69467;59.842;17.604;2024-02-21T12:53:34;77.57;;;13.02;;
80138;SDS011;69467;59.842;17.604;2024-02-21T12:58:25;50.35;;;16.48;;
80138;SDS011;69467;59.842;17.604;2024-02-21T13:03:16;27.83;;;11.25;;
80138;SDS011;69467;59.842;17.604;2024-02-21T13:05:41;26.95;;;10.25;;
80138;SDS011;69467;59.842;17.604;2024-02-21T13:10:32;70.47;;;13.35;;
80138;SDS011;69467;59.842;17.604;2024-02-21T13:13:01;36.70;;;12.00;;
80138;SDS011;69467;59.842;17.604;2024-02-21T13:17:53;30.35;;;9.93;;
80138;SDS011;69467;59.842;17.604;2024-02-21T13:20:19;21.03;;;9.70;;
80138;SDS011;69467;59.842;17.604;2024-02-21T13:22:46;26.92;;;10.52;;
80138;SDS011;69467;59.842;17.604;2024-02-21T13:25:11;30.05;;;11.68;;
80138;SDS011;69467;59.842;17.604;2024-02-21T13:27:40;77.43;;;14.18;;
80138;SDS011;69467;59.842;17.604;2024-02-21T13:30:06;17.58;;;10.10;;
80138;SDS011;69467;59.842;17.604;2024-02-21T13:32:33;27.10;;;10.63;;
80138;SDS011;69467;59.842;17.604;2024-02-21T13:34:59;26.95;;;11.32;;
80138;SDS011;69467;59.842;17.604;2024-02-21T13:37:26;19.38;;;10.32;;
80138;SDS011;69467;59.842;17.604;2024-02-21T13:39:52;21.42;;;9.23;;
80138;SDS011;69467;59.842;17.604;2024-02-21T13:44:42;22.13;;;9.13;;
80138;SDS011;69467;59.842;17.604;2024-02-21T13:47:08;20.70;;;8.32;;
80138;SDS011;69467;59.842;17.604;2024-02-21T13:52:00;50.25;;;11.55;;
80138;SDS011;69467;59.842;17.604;2024-02-21T13:54:26;20.52;;;8.60;;
80138;SDS011;69467;59.842;17.604;2024-02-21T13:59:16;17.33;;;8.60;;
80138;SDS011;69467;59.842;17.604;2024-02-21T14:01:43;14.23;;;8.10;;
80138;SDS011;69467;59.842;17.604;2024-02-21T14:04:08;23.05;;;8.65;;
80138;SDS011;69467;59.842;17.604;2024-02-21T14:08:59;22.98;;;8.93;;
80138;SDS011;69467;59.842;17.604;2024-02-21T14:13:50;41.55;;;9.32;;
80138;SDS011;69467;59.842;17.604;2024-02-21T14:16:15;19.55;;;8.00;;
80138;SDS011;69467;59.842;17.604;2024-02-21T14:18:41;15.65;;;7.47;;
80138;SDS011;69467;59.842;17.604;2024-02-21T14:21:09;30.17;;;9.65;;
80138;SDS011;69467;59.842;17.604;2024-02-21T14:23:39;21.73;;;8.30;;
80138;SDS011;69467;59.842;17.604;2024-02-21T14:26:05;22.90;;;7.05;;
80138;SDS011;69467;59.842;17.604;2024-02-21T14:28:31;16.42;;;7.22;;
80138;SDS011;69467;59.842;17.604;2024-02-21T14:30:58;27.70;;;8.00;;
80138;SDS011;69467;59.842;17.604;2024-02-21T14:33:25;14.68;;;6.20;;
80138;SDS011;69467;59.842;17.604;2024-02-21T14:35:51;15.80;;;7.32;;
80138;SDS011;69467;59.842;17.604;2024-02-21T14:38:17;19.10;;;8.25;;
80138;SDS011;69467;59.842;17.604;2024-02-21T14:40:44;15.00;;;7.82;;
80138;SDS011;69467;59.842;17.604;2024-02-21T14:43:09;14.48;;;7.35;;
80138;SDS011;69467;59.842;17.604;2024-02-21T14:48:00;13.43;;;6.30;;
80138;SDS011;69467;59.842;17.604;2024-02-21T14:50:26;13.80;;;6.43;;
80138;SDS011;69467;59.842;17.604;2024-02-21T14:52:51;11.73;;;6.57;;
80138;SDS011;69467;59.842;17.604;2024-02-21T14:57:42;19.80;;;6.97;;
80138;SDS011;69467;59.842;17.604;2024-02-21T15:02:35;12.82;;;5.75;;
80138;SDS011;69467;59.842;17.604;2024-02-21T15:05:01;14.32;;;6.80;;
80138;SDS011;69467;59.842;17.604;2024-02-21T15:07:28;13.13;;;6.35;;
80138;SDS011;69467;59.842;17.604;2024-02-21T15:09:54;16.23;;;6.25;;
80138;SDS011;69467;59.842;17.604;2024-02-21T15:14:44;9.73;;;6.35;;
80138;SDS011;69467;59.842;17.604;2024-02-21T15:19:37;11.80;;;6.28;;
80138;SDS011;69467;59.842;17.604;2024-02-21T15:22:06;15.18;;;6.38;;
80138;SDS011;69467;59.842;17.604;2024-02-21T15:24:32;21.58;;;6.90;;
80138;SDS011;69467;59.842;17.604;2024-02-21T15:26:57;13.65;;;6.03;;
80138;SDS011;69467;59.842;17.604;2024-02-21T15:31:48;11.18;;;6.40;;
80138;SDS011;69467;59.842;17.604;2024-02-21T15:36:41;13.57;;;6.78;;
80138;SDS011;69467;59.842;17.604;2024-02-21T15:39:07;8.95;;;5.15;;
80138;SDS011;69467;59.842;17.604;2024-02-21T15:41:33;13.32;;;6.50;;
80138;SDS011;69467;59.842;17.604;2024-02-21T15:43:59;12.30;;;5.38;;
80138;SDS011;69467;59.842;17.604;2024-02-21T15:46:25;15.50;;;5.63;;
80138;SDS011;69467;59.842;17.604;2024-02-21T15:48:51;8.93;;;5.13;;
80138;SDS011;69467;59.842;17.604;2024-02-21T15:51:19;12.02;;;6.22;;
80138;SDS011;69467;59.842;17.604;2024-02-21T15:53:45;45.47;;;6.53;;
80138;SDS011;69467;59.842;17.604;2024-02-21T15:56:11;18.95;;;7.97;;
80138;SDS011;69467;59.842;17.604;2024-02-21T15:58:38;19.92;;;11.25;;
80138;SDS011;69467;59.842;17.604;2024-02-21T16:01:04;14.57;;;7.10;;
80138;SDS011;69467;59.842;17.604;2024-02-21T16:03:30;34.97;;;7.38;;
80138;SDS011;69467;59.842;17.604;2024-02-21T16:05:56;16.65;;;6.20;;
80138;SDS011;69467;59.842;17.604;2024-02-21T16:10:47;10.40;;;5.30;;
80138;SDS011;69467;59.842;17.604;2024-02-21T16:15:39;9.98;;;4.93;;
80138;SDS011;69467;59.842;17.604;2024-02-21T16:18:04;11.20;;;4.95;;
80138;SDS011;69467;59.842;17.604;2024-02-21T16:20:30;10.77;;;4.90;;
80138;SDS011;69467;59.842;17.604;2024-02-21T16:25:27;9.63;;;5.07;;
80138;SDS011;69467;59.842;17.604;2024-02-21T16:27:56;23.33;;;7.80;;
80138;SDS011;69467;59.842;17.604;2024-02-21T16:30:22;10.75;;;5.60;;
80138;SDS011;69467;59.842;17.604;2024-02-21T16:32:49;11.02;;;5.75;;
80138;SDS011;69467;59.842;17.604;2024-02-21T16:35:17;14.57;;;7.53;;
80138;SDS011;69467;59.842;17.604;2024-02-21T16:37:43;13.60;;;8.52;;
80138;SDS011;69467;59.842;17.604;2024-02-21T16:40:09;10.13;;;5.72;;
80138;SDS011;69467;59.842;17.604;2024-02-21T16:44:59;8.82;;;4.60;;
80138;SDS011;69467;59.842;17.604;2024-02-21T16:49:51;13.27;;;5.60;;
80138;SDS011;69467;59.842;17.604;2024-02-21T16:54:41;9.27;;;4.37;;
80138;SDS011;69467;59.842;17.604;2024-02-21T16:57:07;67.18;;;7.60;;
80138;SDS011;69467;59.842;17.604;2024-02-21T17:01:58;10.25;;;5.75;;
80138;SDS011;69467;59.842;17.604;2024-02-21T17:04:26;8.98;;;6.25;;
80138;SDS011;69467;59.842;17.604;2024-02-21T17:06:53;16.80;;;6.60;;
80138;SDS011;69467;59.842;17.604;2024-02-21T17:11:44;11.60;;;6.40;;
80138;SDS011;69467;59.842;17.604;2024-02-21T17:14:09;8.23;;;4.88;;
80138;SDS011;69467;59.842;17.604;2024-02-21T17:16:35;9.88;;;5.88;;
80138;SDS011;69467;59.842;17.604;2024-02-21T17:21:26;9.18;;;5.40;;
80138;SDS011;69467;59.842;17.604;2024-02-21T17:23:53;27.97;;;6.77;;
80138;SDS011;69467;59.842;17.604;2024-02-21T17:26:19;17.70;;;7.33;;
80138;SDS011;69467;59.842;17.604;2024-02-21T17:28:46;9.37;;;5.10;;
80138;SDS011;69467;59.842;17.604;2024-02-21T17:33:37;9.70;;;5.97;;
80138;SDS011;69467;59.842;17.604;2024-02-21T17:38:28;21.65;;;6.07;;
80138;SDS011;69467;59.842;17.604;2024-02-21T17:43:20;65.55;;;8.85;;
80138;SDS011;69467;59.842;17.604;2024-02-21T17:48:12;12.33;;;4.83;;
80138;SDS011;69467;59.842;17.604;2024-02-21T17:55:29;33.50;;;5.23;;
80138;SDS011;69467;59.842;17.604;2024-02-21T18:00:20;44.25;;;6.93;;
80138;SDS011;69467;59.842;17.604;2024-02-21T18:02:46;6.87;;;4.43;;
80138;SDS011;69467;59.842;17.604;2024-02-21T18:05:13;7.67;;;4.73;;
80138;SDS011;69467;59.842;17.604;2024-02-21T18:10:04;15.20;;;4.40;;
80138;SDS011;69467;59.842;17.604;2024-02-21T18:12:30;10.85;;;3.60;;
80138;SDS011;69467;59.842;17.604;2024-02-21T18:14:56;8.63;;;4.30;;
80138;SDS011;69467;59.842;17.604;2024-02-21T18:22:13;7.73;;;3.73;;
80138;SDS011;69467;59.842;17.604;2024-02-21T18:24:38;13.07;;;4.38;;
80138;SDS011;69467;59.842;17.604;2024-02-21T18:29:29;15.32;;;6.47;;
80138;SDS011;69467;59.842;17.604;2024-02-21T18:34:19;8.40;;;3.25;;
80138;SDS011;69467;59.842;17.604;2024-02-21T18:36:45;9.57;;;3.92;;
80138;SDS011;69467;59.842;17.604;2024-02-21T18:39:13;21.83;;;4.63;;
80138;SDS011;69467;59.842;17.604;2024-02-21T18:44:11;8.07;;;4.80;;
80138;SDS011;69467;59.842;17.604;2024-02-21T18:46:37;8.20;;;3.63;;
80138;SDS011;69467;59.842;17.604;2024-02-21T18:49:04;5.80;;;3.77;;
80138;SDS011;69467;59.842;17.604;2024-02-21T18:53:56;5.53;;;3.07;;
80138;SDS011;69467;59.842;17.604;2024-02-21T18:58:53;6.33;;;3.63;;
80138;SDS011;69467;59.842;17.604;2024-02-21T19:01:19;3.80;;;3.03;;
80138;SDS011;69467;59.842;17.604;2024-02-21T19:06:11;6.70;;;4.33;;
80138;SDS011;69467;59.842;17.604;2024-02-21T19:08:39;8.50;;;4.37;;
80138;SDS011;69467;59.842;17.604;2024-02-21T19:11:08;7.32;;;3.85;;
80138;SDS011;69467;59.842;17.604;2024-02-21T19:13:35;7.47;;;3.93;;
80138;SDS011;69467;59.842;17.604;2024-02-21T19:20:51;4.90;;;3.63;;
80138;SDS011;69467;59.842;17.604;2024-02-21T19:23:19;7.03;;;4.53;;
80138;SDS011;69467;59.842;17.604;2024-02-21T19:30:38;14.70;;;4.65;;
80138;SDS011;69467;59.842;17.604;2024-02-21T19:35:30;8.27;;;4.75;;
80138;SDS011;69467;59.842;17.604;2024-02-21T19:40:27;14.33;;;6.00;;
80138;SDS011;69467;59.842;17.604;2024-02-21T19:42:56;9.68;;;3.85;;
80138;SDS011;69467;59.842;17.604;2024-02-21T19:45:22;11.73;;;5.43;;
80138;SDS011;69467;59.842;17.604;2024-02-21T19:52:43;9.73;;;4.93;;
80138;SDS011;69467;59.842;17.604;2024-02-21T19:57:34;7.40;;;4.63;;
80138;SDS011;69467;59.842;17.604;2024-02-21T19:59:59;7.95;;;5.10;;
80138;SDS011;69467;59.842;17.604;2024-02-21T20:02:25;6.90;;;4.28;;
80138;SDS011;69467;59.842;17.604;2024-02-21T20:07:16;9.47;;;4.47;;
80138;SDS011;69467;59.842;17.604;2024-02-21T20:12:07;12.53;;;4.57;;
80138;SDS011;69467;59.842;17.604;2024-02-21T20:14:32;8.95;;;4.25;;
80138;SDS011;69467;59.842;17.604;2024-02-21T20:19:23;16.65;;;4.75;;
80138;SDS011;69467;59.842;17.604;2024-02-21T20:24:14;46.60;;;8.07;;
80138;SDS011;69467;59.842;17.604;2024-02-21T20:26:41;8.90;;;4.67;;
80138;SDS011;69467;59.842;17.604;2024-02-21T20:29:12;47.93;;;9.03;;
80138;SDS011;69467;59.842;17.604;2024-02-21T20:31:42;6.80;;;3.67;;
80138;SDS011;69467;59.842;17.604;2024-02-21T20:34:13;21.73;;;8.33;;
80138;SDS011;69467;59.842;17.604;2024-02-21T20:36:39;10.53;;;5.83;;
80138;SDS011;69467;59.842;17.604;2024-02-21T20:39:06;29.83;;;6.80;;
80138;SDS011;69467;59.842;17.604;2024-02-21T20:41:34;16.47;;;4.87;;
80138;SDS011;69467;59.842;17.604;2024-02-21T20:46:25;74.13;;;9.27;;
80138;SDS011;69467;59.842;17.604;2024-02-21T20:51:15;15.63;;;4.97;;
80138;SDS011;69467;59.842;17.604;2024-02-21T20:56:06;38.47;;;5.95;;
80138;SDS011;69467;59.842;17.604;2024-02-21T20:58:33;21.27;;;4.87;;
80138;SDS011;69467;59.842;17.604;2024-02-21T21:03:25;16.53;;;4.83;;
80138;SDS011;69467;59.842;17.604;2024-02-21T21:08:16;60.58;;;8.20;;
80138;SDS011;69467;59.842;17.604;2024-02-21T21:13:07;13.73;;;6.80;;
80138;SDS011;69467;59.842;17.604;2024-02-21T21:15:34;38.50;;;6.87;;
80138;SDS011;69467;59.842;17.604;2024-02-21T21:22:51;16.93;;;5.93;;
80138;SDS011;69467;59.842;17.604;2024-02-21T21:27:42;19.85;;;6.45;;
80138;SDS011;69467;59.842;17.604;2024-02-21T21:30:10;79.00;;;9.20;;
80138;SDS011;69467;59.842;17.604;2024-02-21T21:32:36;17.07;;;6.27;;
80138;SDS011;69467;59.842;17.604;2024-02-21T21:35:02;43.80;;;10.23;;
80138;SDS011;69467;59.842;17.604;2024-02-21T21:37:28;11.80;;;6.07;;
80138;SDS011;69467;59.842;17.604;2024-02-21T21:42:21;10.83;;;6.13;;
80138;SDS011;69467;59.842;17.604;2024-02-21T21:44:47;30.37;;;8.13;;
80138;SDS011;69467;59.842;17.604;2024-02-21T21:49:37;21.80;;;5.40;;
80138;SDS011;69467;59.842;17.604;2024-02-21T21:54:28;12.25;;;5.63;;
80138;SDS011;69467;59.842;17.604;2024-02-21T22:01:44;12.67;;;5.47;;
80138;SDS011;69467;59.842;17.604;2024-02-21T22:06:35;10.27;;;5.90;;
80138;SDS011;69467;59.842;17.604;2024-02-21T22:13:51;18.08;;;7.38;;
80138;SDS011;69467;59.842;17.604;2024-02-21T22:16:18;12.37;;;6.47;;
80138;SDS011;69467;59.842;17.604;2024-02-21T22:21:10;14.30;;;7.97;;
80138;SDS011;69467;59.842;17.604;2024-02-21T22:26:00;19.30;;;8.13;;
80138;SDS011;69467;59.842;17.604;2024-02-21T22:30:51;18.23;;;7.03;;
80138;SDS011;69467;59.842;17.604;2024-02-21T22:35:41;19.30;;;6.77;;
80138;SDS011;69467;59.842;17.604;2024-02-21T22:40:33;13.00;;;6.63;;